Terminal Aerodrome Forecast
Issued by NWS

Current Version | Previous Version | Text Only | Print | Product List | Glossary Off
Versions: 1 2 3 4 5 6 7 8 9 10 11 12 13 14 15 16 17 18 19 20 21 22 23

000
FTUS41 KRLX 272300
TAFCKB
TAF
KCKB 272320Z 2800/2824 00000KT P6SM SCT200
     FM280800 00000KT 6SM BR SCT200
     FM281000 00000KT 3SM BR SCT200
     FM281200 00000KT 6SM BR SCT200
     FM281300 00000KT P6SM SCT200
     FM281600 VRB03KT P6SM FEW050=

USA.gov is the U.S. government's official web portal to all federal, state and local government web resources and services.